createdAt,value
2019-05-30T00:04:23.148Z,42.90
2019-05-30T00:08:26.232Z,43.30
2019-05-30T00:13:23.800Z,43.30
2019-05-30T00:22:42.518Z,43.80
2019-05-30T00:32:57.211Z,44.10
2019-05-30T00:37:55.622Z,44.30
2019-05-30T00:48:09.688Z,45.00
2019-05-30T00:53:07.378Z,44.70
2019-05-30T00:58:05.044Z,45.50
2019-05-30T01:03:04.811Z,46.10
2019-05-30T01:07:09.287Z,45.30
2019-05-30T01:12:07.399Z,45.60
2019-05-30T01:22:21.145Z,46.50
2019-05-30T01:32:34.502Z,46.70
2019-05-30T01:37:31.939Z,46.90
2019-05-30T01:47:45.951Z,46.40
2019-05-30T01:52:43.588Z,46.50
2019-05-30T01:57:41.229Z,46.10
2019-05-30T02:02:38.885Z,46.40
2019-05-30T02:07:37.005Z,46.70
2019-05-30T02:11:39.956Z,46.80
2019-05-30T02:16:37.672Z,47.10
2019-05-30T02:21:35.264Z,47.20
2019-05-30T02:26:33.688Z,47.20
2019-05-30T02:36:47.456Z,47.50
2019-05-30T02:45:08.315Z,47.20
2019-05-30T02:55:23.300Z,47.80
2019-05-30T03:00:20.735Z,47.70
2019-05-30T03:05:18.404Z,47.70
2019-05-30T03:09:22.702Z,47.40
2019-05-30T03:14:20.451Z,48.30
2019-05-30T03:24:34.062Z,48.10
2019-05-30T03:34:47.935Z,47.70
2019-05-30T03:39:45.508Z,47.20
2019-05-30T03:44:24.850Z,46.90
2019-05-30T03:49:22.545Z,47.00
2019-05-30T03:54:20.239Z,46.60
2019-05-30T04:04:33.562Z,46.30
2019-05-30T04:13:55.634Z,46.00
2019-05-30T04:18:53.056Z,46.80
2019-05-30T04:22:56.348Z,47.50
2019-05-30T04:33:19.390Z,46.80
2019-05-30T04:38:10.543Z,46.90
2019-05-30T04:42:49.790Z,47.60
2019-05-30T04:46:53.012Z,47.40
2019-05-30T04:51:51.222Z,47.40
2019-05-30T04:56:49.092Z,47.50
2019-05-30T05:01:28.891Z,47.70
2019-05-30T05:06:27.060Z,47.90
2019-05-30T05:10:30.170Z,48.00
2019-05-30T05:15:27.890Z,48.10
2019-05-30T05:25:43.190Z,48.60
2019-05-30T05:30:42.352Z,48.90
2019-05-30T05:35:40.098Z,48.20
2019-05-30T05:43:48.918Z,49.20
2019-05-30T05:47:50.221Z,49.50
2019-05-30T05:51:51.732Z,49.60
2019-05-30T05:55:55.632Z,49.80
2019-05-30T05:59:56.949Z,49.70
2019-05-30T06:04:12.139Z,50.00
2019-05-30T06:08:02.168Z,49.70
2019-05-30T06:12:03.775Z,49.90
2019-05-30T06:16:05.604Z,50.10
2019-05-30T06:25:14.164Z,49.60
2019-05-30T06:35:29.489Z,49.90
2019-05-30T06:40:30.411Z,50.40
2019-05-30T06:45:28.279Z,50.10
2019-05-30T06:55:42.460Z,49.10
2019-05-30T07:05:57.380Z,50.20
2019-05-30T07:10:55.718Z,49.20
2019-05-30T07:14:57.541Z,49.30
2019-05-30T07:19:55.370Z,50.30
2019-05-30T07:23:57.186Z,49.40
2019-05-30T07:28:54.566Z,48.60
2019-05-30T07:33:52.020Z,49.40
2019-05-30T07:44:06.572Z,49.00
2019-05-30T07:54:20.286Z,48.90
2019-05-30T07:59:18.097Z,49.10
2019-05-30T08:09:32.865Z,49.10
2019-05-30T08:13:35.255Z,49.40
2019-05-30T08:23:49.330Z,48.70
2019-05-30T08:28:46.818Z,48.00
2019-05-30T08:39:00.583Z,47.60
2019-05-30T08:49:14.469Z,49.10
2019-05-30T08:54:13.969Z,48.80
2019-05-30T09:04:09.434Z,52.30
2019-05-30T09:09:07.415Z,54.30
2019-05-30T09:13:09.316Z,55.40
2019-05-30T09:18:07.405Z,58.30
2019-05-30T09:22:09.283Z,58.00
2019-05-30T09:32:23.252Z,56.60
2019-05-30T09:42:37.302Z,58.90
2019-05-30T09:56:23.305Z,65.00
2019-05-30T10:01:25.981Z,69.50
2019-05-30T10:06:35.661Z,70.90
2019-05-30T10:11:38.245Z,69.20
2019-05-30T10:16:41.169Z,69.40
2019-05-30T10:21:45.456Z,67.70
2019-05-30T10:27:42.959Z,69.70
2019-05-30T10:33:40.337Z,69.70
2019-05-30T10:39:37.898Z,70.40
2019-05-30T10:45:18.193Z,67.60
2019-05-30T10:50:21.217Z,69.30
2019-05-30T10:55:24.095Z,69.40
2019-05-30T11:00:48.933Z,68.10
2019-05-30T11:06:22.048Z,68.20
2019-05-30T11:11:24.684Z,67.10
2019-05-30T11:16:28.987Z,65.70
2019-05-30T11:21:31.611Z,64.40
2019-05-30T11:26:34.213Z,64.60
2019-05-30T11:31:37.021Z,64.50
2019-05-30T11:36:39.590Z,64.60
2019-05-30T11:41:42.199Z,63.10
2019-05-30T11:46:44.782Z,63.40
2019-05-30T11:51:50.139Z,62.20
2019-05-30T11:57:47.549Z,61.60
2019-05-30T12:03:45.287Z,60.40
2019-05-30T12:09:42.718Z,59.60
2019-05-30T12:15:40.568Z,59.90
2019-05-30T12:21:38.225Z,60.40
2019-05-30T12:26:41.294Z,59.90
2019-05-30T12:32:39.097Z,60.10
2019-05-30T12:38:36.674Z,59.90
2019-05-30T12:44:34.354Z,58.80
2019-05-30T12:50:33.580Z,59.10
2019-05-30T12:56:31.294Z,58.60
2019-05-30T13:02:10.552Z,58.40
2019-05-30T13:07:49.747Z,60.10
2019-05-30T13:13:29.017Z,62.80
2019-05-30T13:19:08.761Z,66.50
2019-05-30T13:24:11.679Z,67.80
2019-05-30T13:29:51.086Z,70.00
2019-05-30T13:35:30.616Z,73.40
2019-05-30T13:41:09.753Z,79.10
2019-05-30T13:46:48.967Z,80.20
2019-05-30T13:52:28.250Z,79.10
2019-05-30T13:58:07.831Z,78.10
2019-05-30T14:03:47.382Z,76.80
2019-05-30T14:09:29.909Z,74.10
2019-05-30T14:15:10.400Z,75.50
2019-05-30T14:20:15.418Z,75.70
2019-05-30T14:25:57.672Z,73.70
2019-05-30T14:31:36.828Z,72.10
2019-05-30T14:37:16.148Z,69.60
2019-05-30T14:42:55.256Z,69.00
2019-05-30T14:48:34.466Z,69.30
2019-05-30T14:54:14.243Z,69.00
2019-05-30T15:00:00.011Z,69.60
2019-05-30T15:05:39.447Z,69.10
2019-05-30T15:11:18.807Z,69.00
2019-05-30T15:16:57.946Z,68.30
2019-05-30T15:22:00.925Z,67.10
2019-05-30T15:27:40.172Z,67.50
2019-05-30T15:33:19.328Z,67.30
2019-05-30T15:39:01.666Z,66.80
2019-05-30T15:44:41.019Z,66.10
2019-05-30T15:50:20.185Z,66.30
2019-05-30T15:55:59.349Z,65.90
2019-05-30T16:01:39.014Z,65.80
2019-05-30T16:07:18.826Z,66.30
2019-05-30T16:12:58.379Z,63.90
2019-05-30T16:18:37.780Z,63.70
2019-05-30T16:23:41.250Z,63.60
2019-05-30T16:29:21.882Z,63.50
2019-05-30T16:35:01.200Z,63.70
2019-05-30T16:40:40.471Z,62.70
2019-05-30T16:46:20.537Z,63.30
2019-05-30T16:51:59.757Z,63.70
2019-05-30T16:57:39.099Z,63.80
2019-05-30T17:03:21.964Z,63.60
2019-05-30T17:09:01.395Z,63.00
2019-05-30T17:14:40.460Z,63.50
2019-05-30T17:20:20.519Z,63.10
2019-05-30T17:25:23.619Z,63.30
2019-05-30T17:31:02.818Z,63.20
2019-05-30T17:36:45.278Z,63.70
2019-05-30T17:42:25.593Z,63.20
2019-05-30T17:48:16.126Z,63.70
2019-05-30T17:53:49.448Z,63.90
2019-05-30T17:58:52.409Z,63.90
2019-05-30T18:04:31.831Z,63.80
2019-05-30T18:10:17.355Z,65.30
2019-05-30T18:15:56.405Z,64.50
2019-05-30T18:21:17.407Z,64.90
2019-05-30T18:26:57.135Z,65.40
2019-05-30T18:32:36.707Z,65.40
2019-05-30T18:38:17.160Z,65.60
2019-05-30T18:43:58.554Z,65.10
2019-05-30T18:49:38.172Z,65.80
2019-05-30T18:55:17.525Z,66.00
2019-05-30T19:00:56.587Z,66.70
2019-05-30T19:06:36.295Z,67.10
2019-05-30T19:12:17.048Z,67.60
2019-05-30T19:17:56.440Z,68.50
2019-05-30T19:22:59.897Z,68.20
2019-05-30T19:28:38.901Z,68.40
2019-05-30T19:34:18.019Z,68.10
2019-05-30T19:39:57.441Z,68.50
2019-05-30T19:45:36.635Z,68.70
2019-05-30T19:51:15.779Z,68.80
2019-05-30T19:56:58.011Z,68.80
2019-05-30T20:02:38.383Z,69.30
2019-05-30T20:08:18.280Z,69.90
2019-05-30T20:13:57.603Z,69.90
2019-05-30T20:19:40.043Z,70.00
2019-05-30T20:24:43.209Z,70.50
2019-05-30T20:30:22.292Z,71.10
2019-05-30T20:36:01.233Z,71.00
2019-05-30T20:41:40.978Z,71.60
2019-05-30T20:47:20.637Z,72.40
2019-05-30T20:52:59.903Z,73.10
2019-05-30T20:58:42.203Z,73.70
2019-05-30T21:04:21.147Z,74.30
2019-05-30T21:10:00.577Z,74.80
2019-05-30T21:15:40.053Z,75.50
2019-05-30T21:21:19.215Z,75.80
2019-05-30T21:26:22.216Z,75.80
2019-05-30T21:32:01.431Z,76.30
2019-05-30T21:37:41.797Z,76.40
2019-05-30T21:43:21.568Z,76.90
2019-05-30T21:49:04.038Z,77.20
2019-05-30T21:54:43.814Z,77.80
2019-05-30T22:00:15.402Z,77.90
2019-05-30T22:05:54.622Z,78.70
2019-05-30T22:11:33.929Z,79.20
2019-05-30T22:17:13.096Z,79.30
2019-05-30T22:22:16.024Z,79.50
2019-05-30T22:27:58.218Z,81.00
2019-05-30T22:33:40.545Z,80.70
2019-05-30T22:39:19.959Z,80.40
2019-05-30T22:44:59.350Z,79.40
2019-05-30T22:50:38.634Z,80.00
2019-05-30T22:56:18.229Z,80.10
2019-05-30T23:01:57.688Z,80.30
2019-05-30T23:07:37.028Z,80.80
2019-05-30T23:13:16.234Z,80.90
2019-05-30T23:18:56.740Z,80.90
2019-05-30T23:23:59.907Z,81.30
2019-05-30T23:29:39.228Z,81.70
2019-05-30T23:35:18.648Z,82.10
2019-05-30T23:40:59.173Z,81.90
2019-05-30T23:46:38.780Z,82.70
2019-05-30T23:52:21.002Z,83.20
2019-05-30T23:58:00.794Z,83.30
